sensor_id;sensor_type;location;lat;lon;timestamp;P1;durP1;ratioP1;P2;durP2;ratioP2
74229;SDS011;62589;12.568;99.958;2023-12-20T00:00:16;13.23;;;8.55;;
74229;SDS011;62589;12.568;99.958;2023-12-20T00:02:43;11.43;;;7.75;;
74229;SDS011;62589;12.568;99.958;2023-12-20T00:05:13;11.02;;;7.57;;
74229;SDS011;62589;12.568;99.958;2023-12-20T00:07:40;13.52;;;7.63;;
74229;SDS011;62589;12.568;99.958;2023-12-20T00:10:06;11.52;;;7.70;;
74229;SDS011;62589;12.568;99.958;2023-12-20T00:12:33;11.38;;;7.88;;
74229;SDS011;62589;12.568;99.958;2023-12-20T00:14:59;12.00;;;7.78;;
74229;SDS011;62589;12.568;99.958;2023-12-20T00:17:26;12.15;;;8.40;;
74229;SDS011;62589;12.568;99.958;2023-12-20T00:19:52;11.00;;;7.72;;
74229;SDS011;62589;12.568;99.958;2023-12-20T00:22:18;15.25;;;8.13;;
74229;SDS011;62589;12.568;99.958;2023-12-20T00:24:45;10.75;;;7.13;;
74229;SDS011;62589;12.568;99.958;2023-12-20T00:27:12;13.38;;;8.05;;
74229;SDS011;62589;12.568;99.958;2023-12-20T00:29:38;12.75;;;7.78;;
74229;SDS011;62589;12.568;99.958;2023-12-20T00:32:05;11.40;;;7.88;;
74229;SDS011;62589;12.568;99.958;2023-12-20T00:34:31;10.23;;;7.53;;
74229;SDS011;62589;12.568;99.958;2023-12-20T00:36:58;11.73;;;8.40;;
74229;SDS011;62589;12.568;99.958;2023-12-20T00:39:24;14.25;;;8.32;;
74229;SDS011;62589;12.568;99.958;2023-12-20T00:41:51;12.38;;;8.77;;
74229;SDS011;62589;12.568;99.958;2023-12-20T00:44:17;11.20;;;8.45;;
74229;SDS011;62589;12.568;99.958;2023-12-20T00:46:44;9.57;;;7.85;;
74229;SDS011;62589;12.568;99.958;2023-12-20T00:49:10;13.38;;;7.72;;
74229;SDS011;62589;12.568;99.958;2023-12-20T00:51:37;11.05;;;8.43;;
74229;SDS011;62589;12.568;99.958;2023-12-20T00:54:04;11.27;;;8.60;;
74229;SDS011;62589;12.568;99.958;2023-12-20T00:56:30;12.30;;;8.68;;
74229;SDS011;62589;12.568;99.958;2023-12-20T00:58:57;13.60;;;9.18;;
74229;SDS011;62589;12.568;99.958;2023-12-20T01:01:23;12.60;;;8.52;;
74229;SDS011;62589;12.568;99.958;2023-12-20T01:03:49;12.27;;;9.48;;
74229;SDS011;62589;12.568;99.958;2023-12-20T01:06:16;16.90;;;9.23;;
74229;SDS011;62589;12.568;99.958;2023-12-20T01:08:43;12.25;;;8.85;;
74229;SDS011;62589;12.568;99.958;2023-12-20T01:11:09;13.45;;;8.85;;
74229;SDS011;62589;12.568;99.958;2023-12-20T01:13:36;14.77;;;9.48;;
74229;SDS011;62589;12.568;99.958;2023-12-20T01:16:02;13.45;;;9.32;;
74229;SDS011;62589;12.568;99.958;2023-12-20T01:18:29;14.48;;;9.52;;
74229;SDS011;62589;12.568;99.958;2023-12-20T01:20:55;13.07;;;9.43;;
74229;SDS011;62589;12.568;99.958;2023-12-20T01:23:26;16.70;;;10.60;;
74229;SDS011;62589;12.568;99.958;2023-12-20T01:25:53;18.10;;;11.02;;
74229;SDS011;62589;12.568;99.958;2023-12-20T01:28:19;19.88;;;12.30;;
74229;SDS011;62589;12.568;99.958;2023-12-20T01:30:46;17.30;;;11.52;;
74229;SDS011;62589;12.568;99.958;2023-12-20T01:33:12;19.05;;;11.88;;
74229;SDS011;62589;12.568;99.958;2023-12-20T01:35:39;17.30;;;11.85;;
74229;SDS011;62589;12.568;99.958;2023-12-20T01:38:05;18.35;;;12.00;;
74229;SDS011;62589;12.568;99.958;2023-12-20T01:40:32;16.98;;;11.52;;
74229;SDS011;62589;12.568;99.958;2023-12-20T01:42:59;17.67;;;11.07;;
74229;SDS011;62589;12.568;99.958;2023-12-20T01:45:26;18.15;;;12.13;;
74229;SDS011;62589;12.568;99.958;2023-12-20T01:47:54;20.60;;;11.68;;
74229;SDS011;62589;12.568;99.958;2023-12-20T01:50:21;19.98;;;11.95;;
74229;SDS011;62589;12.568;99.958;2023-12-20T01:52:48;19.75;;;11.25;;
74229;SDS011;62589;12.568;99.958;2023-12-20T01:55:20;15.38;;;10.80;;
74229;SDS011;62589;12.568;99.958;2023-12-20T01:57:47;18.67;;;12.63;;
74229;SDS011;62589;12.568;99.958;2023-12-20T02:00:13;17.92;;;12.57;;
74229;SDS011;62589;12.568;99.958;2023-12-20T02:02:41;17.00;;;11.93;;
74229;SDS011;62589;12.568;99.958;2023-12-20T02:05:09;18.13;;;12.85;;
74229;SDS011;62589;12.568;99.958;2023-12-20T02:07:36;20.10;;;13.63;;
74229;SDS011;62589;12.568;99.958;2023-12-20T02:10:03;20.95;;;13.23;;
74229;SDS011;62589;12.568;99.958;2023-12-20T02:12:30;20.02;;;13.95;;
74229;SDS011;62589;12.568;99.958;2023-12-20T02:14:56;18.33;;;13.27;;
74229;SDS011;62589;12.568;99.958;2023-12-20T02:17:23;20.52;;;14.27;;
74229;SDS011;62589;12.568;99.958;2023-12-20T02:19:49;25.77;;;12.90;;
74229;SDS011;62589;12.568;99.958;2023-12-20T02:22:16;15.82;;;12.18;;
74229;SDS011;62589;12.568;99.958;2023-12-20T02:24:42;18.92;;;11.95;;
74229;SDS011;62589;12.568;99.958;2023-12-20T02:27:09;16.00;;;12.23;;
74229;SDS011;62589;12.568;99.958;2023-12-20T02:29:36;19.85;;;11.65;;
74229;SDS011;62589;12.568;99.958;2023-12-20T02:32:02;21.58;;;13.23;;
74229;SDS011;62589;12.568;99.958;2023-12-20T02:34:29;22.30;;;12.75;;
74229;SDS011;62589;12.568;99.958;2023-12-20T02:36:55;19.02;;;12.70;;
74229;SDS011;62589;12.568;99.958;2023-12-20T02:39:22;22.90;;;12.80;;
74229;SDS011;62589;12.568;99.958;2023-12-20T02:41:48;20.13;;;13.00;;
74229;SDS011;62589;12.568;99.958;2023-12-20T02:44:15;18.33;;;12.10;;
74229;SDS011;62589;12.568;99.958;2023-12-20T02:46:41;17.45;;;12.40;;
74229;SDS011;62589;12.568;99.958;2023-12-20T02:49:08;20.08;;;14.15;;
74229;SDS011;62589;12.568;99.958;2023-12-20T02:51:34;19.70;;;13.85;;
74229;SDS011;62589;12.568;99.958;2023-12-20T02:54:04;19.13;;;13.23;;
74229;SDS011;62589;12.568;99.958;2023-12-20T02:56:31;20.98;;;13.95;;
74229;SDS011;62589;12.568;99.958;2023-12-20T02:58:58;20.38;;;12.48;;
74229;SDS011;62589;12.568;99.958;2023-12-20T03:01:25;20.55;;;13.05;;
74229;SDS011;62589;12.568;99.958;2023-12-20T03:03:53;21.52;;;13.38;;
74229;SDS011;62589;12.568;99.958;2023-12-20T03:06:19;22.50;;;14.15;;
74229;SDS011;62589;12.568;99.958;2023-12-20T03:08:46;23.63;;;14.15;;
74229;SDS011;62589;12.568;99.958;2023-12-20T03:11:12;21.95;;;15.27;;
74229;SDS011;62589;12.568;99.958;2023-12-20T03:13:39;24.55;;;16.10;;
74229;SDS011;62589;12.568;99.958;2023-12-20T03:16:09;26.83;;;16.15;;
74229;SDS011;62589;12.568;99.958;2023-12-20T03:18:39;23.00;;;14.80;;
74229;SDS011;62589;12.568;99.958;2023-12-20T03:21:05;21.25;;;15.82;;
74229;SDS011;62589;12.568;99.958;2023-12-20T03:23:32;23.58;;;14.98;;
74229;SDS011;62589;12.568;99.958;2023-12-20T03:26:01;25.77;;;15.07;;
74229;SDS011;62589;12.568;99.958;2023-12-20T03:28:29;21.73;;;14.93;;
74229;SDS011;62589;12.568;99.958;2023-12-20T03:30:55;20.73;;;13.35;;
74229;SDS011;62589;12.568;99.958;2023-12-20T03:33:22;19.25;;;14.02;;
74229;SDS011;62589;12.568;99.958;2023-12-20T03:35:48;19.15;;;13.43;;
74229;SDS011;62589;12.568;99.958;2023-12-20T03:38:15;20.60;;;15.07;;
74229;SDS011;62589;12.568;99.958;2023-12-20T03:40:41;22.88;;;13.30;;
74229;SDS011;62589;12.568;99.958;2023-12-20T03:43:08;17.33;;;12.13;;
74229;SDS011;62589;12.568;99.958;2023-12-20T03:45:34;17.73;;;13.60;;
74229;SDS011;62589;12.568;99.958;2023-12-20T03:48:01;20.67;;;12.80;;
74229;SDS011;62589;12.568;99.958;2023-12-20T03:50:27;19.58;;;12.93;;
74229;SDS011;62589;12.568;99.958;2023-12-20T03:52:54;18.30;;;13.48;;
74229;SDS011;62589;12.568;99.958;2023-12-20T03:55:21;19.05;;;12.68;;
74229;SDS011;62589;12.568;99.958;2023-12-20T03:57:47;16.00;;;12.00;;
74229;SDS011;62589;12.568;99.958;2023-12-20T04:00:14;16.25;;;11.00;;
74229;SDS011;62589;12.568;99.958;2023-12-20T04:02:41;15.32;;;11.13;;
74229;SDS011;62589;12.568;99.958;2023-12-20T04:05:08;16.65;;;10.85;;
74229;SDS011;62589;12.568;99.958;2023-12-20T04:07:35;16.80;;;11.23;;
74229;SDS011;62589;12.568;99.958;2023-12-20T04:10:02;18.80;;;11.93;;
74229;SDS011;62589;12.568;99.958;2023-12-20T04:12:29;17.27;;;11.05;;
74229;SDS011;62589;12.568;99.958;2023-12-20T04:14:56;19.13;;;10.43;;
74229;SDS011;62589;12.568;99.958;2023-12-20T04:17:23;14.30;;;10.82;;
74229;SDS011;62589;12.568;99.958;2023-12-20T04:19:50;19.08;;;10.20;;
74229;SDS011;62589;12.568;99.958;2023-12-20T04:22:18;16.23;;;10.32;;
74229;SDS011;62589;12.568;99.958;2023-12-20T04:24:45;18.00;;;10.75;;
74229;SDS011;62589;12.568;99.958;2023-12-20T04:27:11;13.65;;;9.23;;
74229;SDS011;62589;12.568;99.958;2023-12-20T04:29:38;18.45;;;10.07;;
74229;SDS011;62589;12.568;99.958;2023-12-20T04:32:04;14.05;;;9.70;;
74229;SDS011;62589;12.568;99.958;2023-12-20T04:34:31;14.85;;;9.75;;
74229;SDS011;62589;12.568;99.958;2023-12-20T04:36:57;14.75;;;10.48;;
74229;SDS011;62589;12.568;99.958;2023-12-20T04:39:24;13.15;;;10.05;;
74229;SDS011;62589;12.568;99.958;2023-12-20T04:41:50;16.30;;;9.45;;
74229;SDS011;62589;12.568;99.958;2023-12-20T04:44:17;16.83;;;9.60;;
74229;SDS011;62589;12.568;99.958;2023-12-20T04:46:43;15.68;;;9.32;;
74229;SDS011;62589;12.568;99.958;2023-12-20T04:49:10;15.75;;;9.13;;
74229;SDS011;62589;12.568;99.958;2023-12-20T04:51:36;15.13;;;10.25;;
74229;SDS011;62589;12.568;99.958;2023-12-20T04:54:03;12.98;;;9.45;;
74229;SDS011;62589;12.568;99.958;2023-12-20T04:56:30;13.88;;;10.15;;
74229;SDS011;62589;12.568;99.958;2023-12-20T04:58:56;11.57;;;9.38;;
74229;SDS011;62589;12.568;99.958;2023-12-20T05:01:22;17.85;;;10.45;;
74229;SDS011;62589;12.568;99.958;2023-12-20T05:03:49;15.23;;;9.73;;
74229;SDS011;62589;12.568;99.958;2023-12-20T05:06:15;14.07;;;10.25;;
74229;SDS011;62589;12.568;99.958;2023-12-20T05:08:42;15.45;;;9.70;;
74229;SDS011;62589;12.568;99.958;2023-12-20T05:11:09;14.43;;;9.38;;
74229;SDS011;62589;12.568;99.958;2023-12-20T05:13:35;15.73;;;9.25;;
74229;SDS011;62589;12.568;99.958;2023-12-20T05:16:02;12.23;;;9.40;;
74229;SDS011;62589;12.568;99.958;2023-12-20T05:18:28;15.07;;;9.15;;
74229;SDS011;62589;12.568;99.958;2023-12-20T05:20:55;14.38;;;9.13;;
74229;SDS011;62589;12.568;99.958;2023-12-20T05:23:21;13.60;;;9.13;;
74229;SDS011;62589;12.568;99.958;2023-12-20T05:25:47;12.43;;;8.85;;
74229;SDS011;62589;12.568;99.958;2023-12-20T05:28:15;12.10;;;8.20;;
74229;SDS011;62589;12.568;99.958;2023-12-20T05:30:41;10.52;;;7.45;;
74229;SDS011;62589;12.568;99.958;2023-12-20T05:33:08;9.82;;;6.40;;
74229;SDS011;62589;12.568;99.958;2023-12-20T05:35:34;7.30;;;4.63;;
74229;SDS011;62589;12.568;99.958;2023-12-20T05:38:01;9.10;;;4.93;;
74229;SDS011;62589;12.568;99.958;2023-12-20T05:40:27;8.05;;;4.88;;
74229;SDS011;62589;12.568;99.958;2023-12-20T05:42:54;8.13;;;4.75;;
74229;SDS011;62589;12.568;99.958;2023-12-20T05:45:20;7.35;;;4.70;;
74229;SDS011;62589;12.568;99.958;2023-12-20T05:47:46;7.32;;;4.88;;
74229;SDS011;62589;12.568;99.958;2023-12-20T05:50:13;6.93;;;4.22;;
74229;SDS011;62589;12.568;99.958;2023-12-20T05:52:39;6.00;;;4.15;;
74229;SDS011;62589;12.568;99.958;2023-12-20T05:55:06;5.60;;;4.30;;
74229;SDS011;62589;12.568;99.958;2023-12-20T05:57:33;8.77;;;4.20;;
74229;SDS011;62589;12.568;99.958;2023-12-20T05:59:59;6.38;;;3.80;;
74229;SDS011;62589;12.568;99.958;2023-12-20T06:02:31;7.70;;;3.55;;
74229;SDS011;62589;12.568;99.958;2023-12-20T06:04:58;8.77;;;3.80;;
74229;SDS011;62589;12.568;99.958;2023-12-20T06:07:24;6.22;;;3.85;;
74229;SDS011;62589;12.568;99.958;2023-12-20T06:09:50;4.53;;;3.53;;
74229;SDS011;62589;12.568;99.958;2023-12-20T06:12:17;5.32;;;3.50;;
74229;SDS011;62589;12.568;99.958;2023-12-20T06:14:43;6.65;;;3.75;;
74229;SDS011;62589;12.568;99.958;2023-12-20T06:17:09;6.13;;;3.30;;
74229;SDS011;62589;12.568;99.958;2023-12-20T06:19:36;7.03;;;3.40;;
74229;SDS011;62589;12.568;99.958;2023-12-20T06:22:02;6.95;;;3.15;;
74229;SDS011;62589;12.568;99.958;2023-12-20T06:24:29;9.95;;;3.25;;
74229;SDS011;62589;12.568;99.958;2023-12-20T06:26:55;5.38;;;3.50;;
74229;SDS011;62589;12.568;99.958;2023-12-20T06:29:21;6.22;;;3.60;;
74229;SDS011;62589;12.568;99.958;2023-12-20T06:31:48;5.18;;;3.30;;
74229;SDS011;62589;12.568;99.958;2023-12-20T06:34:14;5.43;;;3.45;;
74229;SDS011;62589;12.568;99.958;2023-12-20T06:36:41;3.85;;;2.92;;
74229;SDS011;62589;12.568;99.958;2023-12-20T06:39:07;3.85;;;3.15;;
74229;SDS011;62589;12.568;99.958;2023-12-20T06:41:34;7.25;;;3.17;;
74229;SDS011;62589;12.568;99.958;2023-12-20T06:44:00;4.78;;;3.20;;
74229;SDS011;62589;12.568;99.958;2023-12-20T06:46:26;7.68;;;3.60;;
74229;SDS011;62589;12.568;99.958;2023-12-20T06:48:53;6.18;;;3.35;;
74229;SDS011;62589;12.568;99.958;2023-12-20T06:51:19;6.30;;;3.47;;
74229;SDS011;62589;12.568;99.958;2023-12-20T06:53:46;8.20;;;3.72;;
74229;SDS011;62589;12.568;99.958;2023-12-20T06:56:12;5.68;;;3.28;;
74229;SDS011;62589;12.568;99.958;2023-12-20T06:58:38;5.22;;;3.40;;
74229;SDS011;62589;12.568;99.958;2023-12-20T07:01:05;6.20;;;3.97;;
74229;SDS011;62589;12.568;99.958;2023-12-20T07:03:36;5.70;;;3.45;;
74229;SDS011;62589;12.568;99.958;2023-12-20T07:06:02;6.53;;;3.78;;
74229;SDS011;62589;12.568;99.958;2023-12-20T07:08:29;4.85;;;3.70;;
74229;SDS011;62589;12.568;99.958;2023-12-20T07:10:55;5.30;;;3.55;;
74229;SDS011;62589;12.568;99.958;2023-12-20T07:13:22;5.63;;;3.75;;
74229;SDS011;62589;12.568;99.958;2023-12-20T07:15:48;4.32;;;3.33;;
74229;SDS011;62589;12.568;99.958;2023-12-20T07:18:14;6.57;;;3.58;;
74229;SDS011;62589;12.568;99.958;2023-12-20T07:20:42;5.10;;;3.17;;
74229;SDS011;62589;12.568;99.958;2023-12-20T07:23:08;6.55;;;3.47;;
74229;SDS011;62589;12.568;99.958;2023-12-20T07:25:35;5.95;;;3.67;;
74229;SDS011;62589;12.568;99.958;2023-12-20T07:28:01;5.18;;;3.55;;
74229;SDS011;62589;12.568;99.958;2023-12-20T07:30:28;7.47;;;3.58;;
74229;SDS011;62589;12.568;99.958;2023-12-20T07:32:54;3.67;;;3.22;;
74229;SDS011;62589;12.568;99.958;2023-12-20T07:35:21;7.60;;;3.30;;
74229;SDS011;62589;12.568;99.958;2023-12-20T07:37:47;6.18;;;3.65;;
74229;SDS011;62589;12.568;99.958;2023-12-20T07:40:13;6.10;;;3.72;;
74229;SDS011;62589;12.568;99.958;2023-12-20T07:42:42;5.80;;;2.95;;
74229;SDS011;62589;12.568;99.958;2023-12-20T07:45:08;6.28;;;3.33;;
74229;SDS011;62589;12.568;99.958;2023-12-20T07:47:36;4.35;;;2.90;;
74229;SDS011;62589;12.568;99.958;2023-12-20T07:50:03;6.20;;;3.28;;
74229;SDS011;62589;12.568;99.958;2023-12-20T07:52:29;4.35;;;3.10;;
74229;SDS011;62589;12.568;99.958;2023-12-20T07:54:56;6.07;;;3.30;;
74229;SDS011;62589;12.568;99.958;2023-12-20T07:57:23;3.78;;;2.70;;
74229;SDS011;62589;12.568;99.958;2023-12-20T07:59:49;3.97;;;2.65;;
74229;SDS011;62589;12.568;99.958;2023-12-20T08:02:16;4.85;;;2.55;;
74229;SDS011;62589;12.568;99.958;2023-12-20T08:04:42;3.65;;;2.45;;
74229;SDS011;62589;12.568;99.958;2023-12-20T08:07:08;4.60;;;2.83;;
74229;SDS011;62589;12.568;99.958;2023-12-20T08:09:35;2.90;;;2.55;;
74229;SDS011;62589;12.568;99.958;2023-12-20T08:12:02;4.60;;;3.05;;
74229;SDS011;62589;12.568;99.958;2023-12-20T08:14:28;5.18;;;3.10;;
74229;SDS011;62589;12.568;99.958;2023-12-20T08:16:55;4.78;;;3.03;;
74229;SDS011;62589;12.568;99.958;2023-12-20T08:19:21;3.35;;;2.45;;
74229;SDS011;62589;12.568;99.958;2023-12-20T08:21:48;6.63;;;2.55;;
74229;SDS011;62589;12.568;99.958;2023-12-20T08:24:14;5.05;;;2.92;;
74229;SDS011;62589;12.568;99.958;2023-12-20T08:26:40;3.92;;;3.28;;
74229;SDS011;62589;12.568;99.958;2023-12-20T08:29:07;3.45;;;3.08;;
74229;SDS011;62589;12.568;99.958;2023-12-20T08:31:33;4.78;;;3.10;;
74229;SDS011;62589;12.568;99.958;2023-12-20T08:33:59;4.97;;;3.30;;
74229;SDS011;62589;12.568;99.958;2023-12-20T08:36:26;6.55;;;3.35;;
74229;SDS011;62589;12.568;99.958;2023-12-20T08:38:52;5.20;;;3.58;;
74229;SDS011;62589;12.568;99.958;2023-12-20T08:41:20;7.80;;;3.65;;
74229;SDS011;62589;12.568;99.958;2023-12-20T08:43:47;3.95;;;2.97;;
74229;SDS011;62589;12.568;99.958;2023-12-20T08:46:14;6.50;;;3.72;;
74229;SDS011;62589;12.568;99.958;2023-12-20T08:48:40;5.38;;;3.70;;
74229;SDS011;62589;12.568;99.958;2023-12-20T08:51:06;7.13;;;3.83;;
74229;SDS011;62589;12.568;99.958;2023-12-20T08:53:34;4.20;;;3.65;;
74229;SDS011;62589;12.568;99.958;2023-12-20T08:56:00;7.75;;;4.07;;
74229;SDS011;62589;12.568;99.958;2023-12-20T08:58:27;6.03;;;3.95;;
74229;SDS011;62589;12.568;99.958;2023-12-20T09:00:54;6.53;;;3.72;;
74229;SDS011;62589;12.568;99.958;2023-12-20T09:03:20;5.07;;;3.95;;
74229;SDS011;62589;12.568;99.958;2023-12-20T09:05:46;5.60;;;4.30;;
74229;SDS011;62589;12.568;99.958;2023-12-20T09:08:13;6.53;;;3.72;;
74229;SDS011;62589;12.568;99.958;2023-12-20T09:10:39;7.00;;;4.70;;
74229;SDS011;62589;12.568;99.958;2023-12-20T09:13:06;7.35;;;4.70;;
74229;SDS011;62589;12.568;99.958;2023-12-20T09:15:32;6.90;;;4.78;;
74229;SDS011;62589;12.568;99.958;2023-12-20T09:17:59;6.85;;;5.13;;
74229;SDS011;62589;12.568;99.958;2023-12-20T09:20:26;6.93;;;4.85;;
74229;SDS011;62589;12.568;99.958;2023-12-20T09:22:52;8.57;;;5.70;;
74229;SDS011;62589;12.568;99.958;2023-12-20T09:25:19;5.85;;;4.72;;
74229;SDS011;62589;12.568;99.958;2023-12-20T09:27:45;8.57;;;5.70;;
74229;SDS011;62589;12.568;99.958;2023-12-20T09:30:12;8.75;;;5.80;;
74229;SDS011;62589;12.568;99.958;2023-12-20T09:32:38;7.35;;;5.45;;
74229;SDS011;62589;12.568;99.958;2023-12-20T09:35:05;7.32;;;5.65;;
74229;SDS011;62589;12.568;99.958;2023-12-20T09:37:33;8.18;;;5.70;;
74229;SDS011;62589;12.568;99.958;2023-12-20T09:39:59;9.15;;;5.80;;
74229;SDS011;62589;12.568;99.958;2023-12-20T09:42:39;9.43;;;6.30;;
74229;SDS011;62589;12.568;99.958;2023-12-20T09:45:15;7.15;;;6.45;;
74229;SDS011;62589;12.568;99.958;2023-12-20T09:47:44;10.23;;;6.32;;
74229;SDS011;62589;12.568;99.958;2023-12-20T09:50:11;9.13;;;6.85;;
74229;SDS011;62589;12.568;99.958;2023-12-20T09:52:38;10.70;;;6.57;;
74229;SDS011;62589;12.568;99.958;2023-12-20T09:55:05;9.85;;;6.75;;
74229;SDS011;62589;12.568;99.958;2023-12-20T09:57:33;9.65;;;6.80;;
74229;SDS011;62589;12.568;99.958;2023-12-20T10:00:00;10.18;;;7.35;;
74229;SDS011;62589;12.568;99.958;2023-12-20T10:02:29;8.18;;;6.63;;
74229;SDS011;62589;12.568;99.958;2023-12-20T10:04:57;9.13;;;7.38;;
74229;SDS011;62589;12.568;99.958;2023-12-20T10:07:24;12.43;;;7.50;;
74229;SDS011;62589;12.568;99.958;2023-12-20T10:09:51;9.30;;;6.88;;
74229;SDS011;62589;12.568;99.958;2023-12-20T10:12:21;12.05;;;6.82;;
74229;SDS011;62589;12.568;99.958;2023-12-20T10:14:48;9.18;;;7.03;;
74229;SDS011;62589;12.568;99.958;2023-12-20T10:17:14;7.88;;;5.45;;
74229;SDS011;62589;12.568;99.958;2023-12-20T10:19:42;8.98;;;5.65;;
74229;SDS011;62589;12.568;99.958;2023-12-20T10:22:08;9.95;;;5.95;;
74229;SDS011;62589;12.568;99.958;2023-12-20T10:24:36;8.43;;;5.85;;
74229;SDS011;62589;12.568;99.958;2023-12-20T10:27:04;7.63;;;5.80;;
74229;SDS011;62589;12.568;99.958;2023-12-20T10:29:32;9.50;;;6.22;;
74229;SDS011;62589;12.568;99.958;2023-12-20T10:31:59;10.60;;;5.97;;
74229;SDS011;62589;12.568;99.958;2023-12-20T10:34:45;7.70;;;5.68;;
74229;SDS011;62589;12.568;99.958;2023-12-20T10:37:12;9.40;;;6.03;;
74229;SDS011;62589;12.568;99.958;2023-12-20T10:39:38;8.50;;;5.68;;
74229;SDS011;62589;12.568;99.958;2023-12-20T10:42:06;8.65;;;6.40;;
74229;SDS011;62589;12.568;99.958;2023-12-20T10:44:33;8.65;;;5.93;;
74229;SDS011;62589;12.568;99.958;2023-12-20T10:46:59;9.05;;;5.47;;
74229;SDS011;62589;12.568;99.958;2023-12-20T10:49:26;8.88;;;6.20;;
74229;SDS011;62589;12.568;99.958;2023-12-20T10:51:54;9.27;;;6.10;;
74229;SDS011;62589;12.568;99.958;2023-12-20T10:54:22;8.23;;;6.38;;
74229;SDS011;62589;12.568;99.958;2023-12-20T10:56:49;8.35;;;6.13;;
74229;SDS011;62589;12.568;99.958;2023-12-20T10:59:19;10.35;;;6.60;;
74229;SDS011;62589;12.568;99.958;2023-12-20T11:01:47;10.50;;;6.75;;
74229;SDS011;62589;12.568;99.958;2023-12-20T11:04:17;9.95;;;7.18;;
74229;SDS011;62589;12.568;99.958;2023-12-20T11:06:51;8.10;;;6.60;;
74229;SDS011;62589;12.568;99.958;2023-12-20T11:09:35;10.43;;;7.13;;
74229;SDS011;62589;12.568;99.958;2023-12-20T11:12:10;10.70;;;7.30;;
74229;SDS011;62589;12.568;99.958;2023-12-20T11:14:54;12.57;;;7.90;;
74229;SDS011;62589;12.568;99.958;2023-12-20T11:17:22;13.25;;;7.43;;
74229;SDS011;62589;12.568;99.958;2023-12-20T11:22:36;16.33;;;8.57;;
74229;SDS011;62589;12.568;99.958;2023-12-20T11:25:05;14.80;;;8.38;;
74229;SDS011;62589;12.568;99.958;2023-12-20T11:27:36;12.77;;;7.80;;
74229;SDS011;62589;12.568;99.958;2023-12-20T11:30:06;8.35;;;7.47;;
74229;SDS011;62589;12.568;99.958;2023-12-20T11:32:35;11.68;;;8.13;;
74229;SDS011;62589;12.568;99.958;2023-12-20T11:37:49;11.73;;;8.25;;
74229;SDS011;62589;12.568;99.958;2023-12-20T11:40:17;10.88;;;8.02;;
74229;SDS011;62589;12.568;99.958;2023-12-20T11:42:45;13.93;;;8.93;;
74229;SDS011;62589;12.568;99.958;2023-12-20T11:45:15;12.27;;;8.30;;
74229;SDS011;62589;12.568;99.958;2023-12-20T11:47:47;15.75;;;9.88;;
74229;SDS011;62589;12.568;99.958;2023-12-20T11:50:16;13.60;;;10.10;;
74229;SDS011;62589;12.568;99.958;2023-12-20T11:52:43;16.10;;;10.23;;
74229;SDS011;62589;12.568;99.958;2023-12-20T11:55:10;19.48;;;10.45;;
74229;SDS011;62589;12.568;99.958;2023-12-20T11:57:37;17.50;;;10.73;;
74229;SDS011;62589;12.568;99.958;2023-12-20T12:00:04;17.05;;;10.77;;
74229;SDS011;62589;12.568;99.958;2023-12-20T12:02:31;19.88;;;11.07;;
74229;SDS011;62589;12.568;99.958;2023-12-20T12:04:59;18.92;;;11.57;;
74229;SDS011;62589;12.568;99.958;2023-12-20T12:07:25;19.23;;;11.95;;
74229;SDS011;62589;12.568;99.958;2023-12-20T12:09:52;21.30;;;11.70;;
74229;SDS011;62589;12.568;99.958;2023-12-20T12:12:19;24.02;;;11.90;;
74229;SDS011;62589;12.568;99.958;2023-12-20T12:14:45;20.45;;;11.98;;
74229;SDS011;62589;12.568;99.958;2023-12-20T12:17:12;24.98;;;12.48;;
74229;SDS011;62589;12.568;99.958;2023-12-20T12:19:40;25.67;;;11.82;;
74229;SDS011;62589;12.568;99.958;2023-12-20T12:22:07;20.00;;;12.10;;
74229;SDS011;62589;12.568;99.958;2023-12-20T12:24:52;21.50;;;12.77;;
74229;SDS011;62589;12.568;99.958;2023-12-20T12:27:19;22.30;;;12.52;;
74229;SDS011;62589;12.568;99.958;2023-12-20T12:32:29;17.00;;;10.77;;
74229;SDS011;62589;12.568;99.958;2023-12-20T12:34:55;16.15;;;10.90;;
74229;SDS011;62589;12.568;99.958;2023-12-20T12:37:22;13.25;;;10.82;;
74229;SDS011;62589;12.568;99.958;2023-12-20T12:39:50;16.45;;;11.05;;
74229;SDS011;62589;12.568;99.958;2023-12-20T12:42:18;16.23;;;10.40;;
74229;SDS011;62589;12.568;99.958;2023-12-20T12:44:46;17.02;;;10.60;;
74229;SDS011;62589;12.568;99.958;2023-12-20T12:47:12;15.38;;;10.63;;
74229;SDS011;62589;12.568;99.958;2023-12-20T12:49:40;14.13;;;10.32;;
74229;SDS011;62589;12.568;99.958;2023-12-20T12:52:06;16.00;;;10.75;;
74229;SDS011;62589;12.568;99.958;2023-12-20T12:54:33;13.23;;;10.25;;
74229;SDS011;62589;12.568;99.958;2023-12-20T12:56:59;14.05;;;11.43;;
74229;SDS011;62589;12.568;99.958;2023-12-20T12:59:26;18.88;;;10.88;;
74229;SDS011;62589;12.568;99.958;2023-12-20T13:01:52;17.52;;;11.35;;
74229;SDS011;62589;12.568;99.958;2023-12-20T13:04:19;15.77;;;11.82;;
74229;SDS011;62589;12.568;99.958;2023-12-20T13:06:45;15.02;;;11.30;;
74229;SDS011;62589;12.568;99.958;2023-12-20T13:09:12;16.38;;;11.85;;
74229;SDS011;62589;12.568;99.958;2023-12-20T13:11:39;16.58;;;11.85;;
74229;SDS011;62589;12.568;99.958;2023-12-20T13:14:05;17.55;;;12.52;;
74229;SDS011;62589;12.568;99.958;2023-12-20T13:16:32;19.63;;;12.27;;
74229;SDS011;62589;12.568;99.958;2023-12-20T13:18:59;17.40;;;11.75;;
74229;SDS011;62589;12.568;99.958;2023-12-20T13:21:26;17.73;;;12.40;;
74229;SDS011;62589;12.568;99.958;2023-12-20T13:23:52;18.17;;;13.13;;
74229;SDS011;62589;12.568;99.958;2023-12-20T13:26:19;21.50;;;13.73;;
74229;SDS011;62589;12.568;99.958;2023-12-20T13:28:46;17.65;;;13.25;;
74229;SDS011;62589;12.568;99.958;2023-12-20T13:31:12;17.90;;;13.25;;
74229;SDS011;62589;12.568;99.958;2023-12-20T13:33:39;20.75;;;14.23;;
74229;SDS011;62589;12.568;99.958;2023-12-20T13:36:06;18.42;;;14.13;;
74229;SDS011;62589;12.568;99.958;2023-12-20T13:38:32;19.33;;;13.70;;
74229;SDS011;62589;12.568;99.958;2023-12-20T13:40:59;18.55;;;14.45;;
74229;SDS011;62589;12.568;99.958;2023-12-20T13:43:25;20.40;;;15.20;;
74229;SDS011;62589;12.568;99.958;2023-12-20T13:45:52;22.63;;;16.05;;
74229;SDS011;62589;12.568;99.958;2023-12-20T13:48:18;24.27;;;16.17;;
74229;SDS011;62589;12.568;99.958;2023-12-20T13:50:45;21.05;;;15.73;;
74229;SDS011;62589;12.568;99.958;2023-12-20T13:53:11;21.75;;;16.10;;
74229;SDS011;62589;12.568;99.958;2023-12-20T13:55:38;23.00;;;15.35;;
74229;SDS011;62589;12.568;99.958;2023-12-20T13:58:05;22.80;;;15.35;;
74229;SDS011;62589;12.568;99.958;2023-12-20T14:00:32;21.80;;;15.18;;
74229;SDS011;62589;12.568;99.958;2023-12-20T14:02:58;22.35;;;14.13;;
74229;SDS011;62589;12.568;99.958;2023-12-20T14:05:25;20.02;;;12.85;;
74229;SDS011;62589;12.568;99.958;2023-12-20T14:07:53;22.63;;;13.40;;
74229;SDS011;62589;12.568;99.958;2023-12-20T14:10:19;18.52;;;12.32;;
74229;SDS011;62589;12.568;99.958;2023-12-20T14:12:46;20.15;;;12.07;;
74229;SDS011;62589;12.568;99.958;2023-12-20T14:15:12;17.23;;;10.77;;
74229;SDS011;62589;12.568;99.958;2023-12-20T14:17:39;16.70;;;11.05;;
74229;SDS011;62589;12.568;99.958;2023-12-20T14:20:07;17.70;;;10.75;;
74229;SDS011;62589;12.568;99.958;2023-12-20T14:22:35;18.52;;;10.68;;
74229;SDS011;62589;12.568;99.958;2023-12-20T14:25:03;16.30;;;10.07;;
74229;SDS011;62589;12.568;99.958;2023-12-20T14:27:30;20.67;;;9.95;;